createdAt,value
2022-11-29T00:02:37.968Z,5.4
2022-11-29T00:07:44.074Z,5.4
2022-11-29T00:12:49.192Z,5.4
2022-11-29T00:17:54.303Z,5.5
2022-11-29T00:23:00.416Z,5.5
2022-11-29T00:28:05.527Z,5.5
2022-11-29T00:33:10.639Z,5.5
2022-11-29T00:38:16.723Z,5.5
2022-11-29T00:43:22.824Z,5.5
2022-11-29T00:48:28.927Z,5.5
2022-11-29T00:53:35.016Z,5.5
2022-11-29T00:58:41.111Z,5.5
2022-11-29T01:03:47.215Z,5.5
2022-11-29T01:08:53.309Z,5.4
2022-11-29T01:13:59.408Z,5.4
2022-11-29T01:19:05.514Z,5.4
2022-11-29T01:24:11.596Z,5.4
2022-11-29T01:29:17.700Z,5.4
2022-11-29T01:34:23.797Z,5.4
2022-11-29T01:39:28.924Z,5.4
2022-11-29T01:44:35.011Z,5.4
2022-11-29T01:49:41.114Z,5.4
2022-11-29T01:54:47.206Z,5.4
2022-11-29T01:59:53.337Z,5.4
2022-11-29T02:04:59.401Z,5.3
2022-11-29T02:10:05.511Z,5.3
2022-11-29T02:15:10.613Z,5.3
2022-11-29T02:20:15.728Z,5.3
2022-11-29T02:25:21.832Z,5.3
2022-11-29T02:30:27.927Z,5.3
2022-11-29T02:35:34.031Z,5.3
2022-11-29T02:40:40.123Z,5.3
2022-11-29T02:45:46.237Z,5.3
2022-11-29T02:50:52.313Z,5.3
2022-11-29T02:55:58.400Z,5.3
2022-11-29T03:01:04.520Z,5.3
2022-11-29T03:06:10.602Z,5.4
2022-11-29T03:11:16.705Z,5.3
2022-11-29T03:16:22.838Z,5.3
2022-11-29T03:21:28.896Z,5.3
2022-11-29T03:26:34.010Z,5.3
2022-11-29T03:31:40.117Z,5.3
2022-11-29T03:36:46.205Z,5.3
2022-11-29T03:41:52.305Z,5.3
2022-11-29T03:46:58.413Z,5.3
2022-11-29T03:52:04.509Z,5.3
2022-11-29T03:57:10.597Z,5.3
2022-11-29T04:02:15.722Z,5.3
2022-11-29T04:07:20.822Z,5.3
2022-11-29T04:12:26.926Z,5.3
2022-11-29T04:17:33.012Z,5.3
2022-11-29T04:22:39.115Z,5.3
2022-11-29T04:27:45.221Z,5.3
2022-11-29T04:32:51.297Z,5.3
2022-11-29T04:37:57.419Z,5.3
2022-11-29T04:43:03.502Z,5.3
2022-11-29T04:48:09.593Z,5.3
2022-11-29T04:53:15.694Z,5.3
2022-11-29T04:58:21.794Z,5.3
2022-11-29T05:03:27.895Z,5.3
2022-11-29T05:08:33.993Z,5.3
2022-11-29T05:13:39.099Z,5.3
2022-11-29T05:18:45.186Z,5.3
2022-11-29T05:23:51.290Z,5.3
2022-11-29T05:28:57.388Z,5.3
2022-11-29T05:34:03.491Z,5.3
2022-11-29T05:39:09.597Z,5.3
2022-11-29T05:44:15.676Z,5.3
2022-11-29T05:49:20.790Z,5.3
2022-11-29T05:54:25.927Z,5.3
2022-11-29T05:59:31.036Z,5.3
2022-11-29T06:04:36.141Z,5.4
2022-11-29T06:09:41.265Z,5.3
2022-11-29T06:14:46.378Z,5.3
2022-11-29T06:19:52.479Z,5.3
2022-11-29T06:24:58.567Z,5.3
2022-11-29T06:30:04.676Z,5.4
2022-11-29T06:35:10.765Z,5.4
2022-11-29T06:40:16.877Z,5.4
2022-11-29T06:45:22.957Z,5.4
2022-11-29T06:50:29.059Z,5.4
2022-11-29T06:55:35.157Z,5.4
2022-11-29T07:00:41.321Z,5.4
2022-11-29T07:05:47.337Z,5.4
2022-11-29T07:10:53.455Z,5.4
2022-11-29T07:15:59.552Z,5.5
2022-11-29T07:21:04.665Z,5.5
2022-11-29T07:26:10.757Z,5.5
2022-11-29T07:31:16.851Z,5.6
2022-11-29T07:36:22.952Z,5.6
2022-11-29T07:41:29.034Z,5.6
2022-11-29T07:46:35.176Z,5.7
2022-11-29T07:51:41.253Z,5.7
2022-11-29T07:56:46.351Z,5.7
2022-11-29T08:01:51.472Z,5.8
2022-11-29T08:06:56.580Z,5.8
2022-11-29T08:12:01.721Z,5.8
2022-11-29T08:17:07.794Z,5.9
2022-11-29T08:22:13.924Z,5.9
2022-11-29T08:27:20.069Z,6
2022-11-29T08:32:26.121Z,6.1
2022-11-29T08:37:32.227Z,6.2
2022-11-29T08:42:38.282Z,6.3
2022-11-29T08:47:44.386Z,6.3
2022-11-29T08:52:50.482Z,6.4
2022-11-29T08:57:56.564Z,6.3
2022-11-29T09:03:01.870Z,6.3
2022-11-29T09:08:07.787Z,6.4
2022-11-29T09:13:13.921Z,6.3
2022-11-29T09:18:20.025Z,6.4
2022-11-29T09:23:26.068Z,6.4
2022-11-29T09:28:32.164Z,6.5
2022-11-29T09:33:38.266Z,6.6
2022-11-29T09:38:44.367Z,6.6
2022-11-29T09:43:50.464Z,6.6
2022-11-29T09:48:56.561Z,6.6
2022-11-29T09:54:01.670Z,6.7
2022-11-29T09:59:06.780Z,6.8
2022-11-29T10:04:12.937Z,6.7
2022-11-29T10:09:18.042Z,6.8
2022-11-29T10:14:23.110Z,6.8
2022-11-29T10:19:29.220Z,6.8
2022-11-29T10:24:35.389Z,6.9
2022-11-29T10:29:41.453Z,6.9
2022-11-29T10:34:47.483Z,7
2022-11-29T10:39:53.588Z,7.2
2022-11-29T10:44:59.692Z,7.2
2022-11-29T10:50:05.784Z,7.2
2022-11-29T10:55:11.877Z,7.3
2022-11-29T11:00:18.052Z,7.3
2022-11-29T11:05:24.102Z,7.4
2022-11-29T11:10:30.171Z,7.3
2022-11-29T11:15:36.324Z,7.3
2022-11-29T11:20:41.375Z,7.3
2022-11-29T11:25:47.479Z,7.4
2022-11-29T11:30:53.578Z,7.3
2022-11-29T11:35:59.662Z,7.3
2022-11-29T11:41:05.767Z,7.3
2022-11-29T11:46:11.861Z,7.3
2022-11-29T11:51:17.975Z,7.3
2022-11-29T11:56:23.071Z,7.3
2022-11-29T12:01:28.190Z,7.3
2022-11-29T12:06:34.348Z,7.4
2022-11-29T12:11:39.410Z,7.4
2022-11-29T12:16:44.513Z,7.4
2022-11-29T12:21:50.609Z,7.4
2022-11-29T12:26:56.993Z,7.5
2022-11-29T12:32:02.802Z,7.5
2022-11-29T12:37:08.896Z,7.5
2022-11-29T12:42:14.983Z,7.5
2022-11-29T12:47:21.072Z,7.6
2022-11-29T12:52:27.297Z,7.6
2022-11-29T12:57:33.273Z,7.6
2022-11-29T13:02:39.477Z,7.5
2022-11-29T13:07:45.472Z,7.6
2022-11-29T13:12:51.587Z,7.6
2022-11-29T13:17:57.672Z,7.5
2022-11-29T13:23:02.936Z,7.5
2022-11-29T13:28:08.877Z,7.5
2022-11-29T13:33:15.101Z,7.4
2022-11-29T13:38:21.137Z,7.4
2022-11-29T13:43:27.273Z,7.4
2022-11-29T13:48:33.254Z,7.4
2022-11-29T13:53:39.347Z,7.4
2022-11-29T13:58:44.479Z,7.3
2022-11-29T14:03:49.600Z,7.3
2022-11-29T14:08:55.690Z,7.3
2022-11-29T14:14:01.768Z,7.2
2022-11-29T14:19:07.862Z,7.2
2022-11-29T14:24:13.972Z,7.2
2022-11-29T14:29:20.057Z,7.1
2022-11-29T14:34:26.151Z,7.1
2022-11-29T14:39:32.256Z,7.1
2022-11-29T14:44:38.332Z,7
2022-11-29T14:49:44.456Z,7
2022-11-29T14:54:50.533Z,7
2022-11-29T14:59:56.679Z,6.9
2022-11-29T15:05:02.775Z,6.9
2022-11-29T15:10:07.837Z,6.9
2022-11-29T15:15:13.948Z,6.9
2022-11-29T15:20:20.044Z,6.8
2022-11-29T15:25:26.165Z,6.8
2022-11-29T15:30:32.248Z,6.8
2022-11-29T15:35:38.362Z,6.8
2022-11-29T15:40:44.511Z,6.8
2022-11-29T15:45:49.551Z,6.8
2022-11-29T15:50:54.742Z,6.8
2022-11-29T15:55:59.768Z,6.8
2022-11-29T16:01:04.885Z,6.8
2022-11-29T16:06:10.968Z,6.8
2022-11-29T16:11:17.067Z,6.7
2022-11-29T16:16:23.171Z,6.7
2022-11-29T16:21:29.260Z,6.7
2022-11-29T16:26:35.382Z,6.7
2022-11-29T16:31:41.456Z,6.7
2022-11-29T16:36:47.560Z,6.7
2022-11-29T16:41:53.712Z,6.7
2022-11-29T16:46:59.750Z,6.7
2022-11-29T16:52:05.933Z,6.7
2022-11-29T16:57:11.945Z,6.7
2022-11-29T17:02:18.037Z,6.6
2022-11-29T17:07:23.159Z,6.7
2022-11-29T17:12:29.244Z,6.6
2022-11-29T17:17:35.364Z,6.6
2022-11-29T17:22:41.488Z,6.6
2022-11-29T17:27:47.564Z,6.6
2022-11-29T17:32:53.639Z,6.6
2022-11-29T17:37:59.720Z,6.6
2022-11-29T17:43:04.849Z,6.6
2022-11-29T17:48:09.950Z,6.6
2022-11-29T17:53:16.055Z,6.6
2022-11-29T17:58:22.148Z,6.6
2022-11-29T18:03:28.242Z,6.6
2022-11-29T18:08:34.327Z,6.6
2022-11-29T18:13:40.428Z,6.6
2022-11-29T18:18:46.527Z,6.6
2022-11-29T18:23:52.623Z,6.6
2022-11-29T18:28:58.736Z,6.6
2022-11-29T18:34:04.824Z,6.6
2022-11-29T18:39:10.953Z,6.6
2022-11-29T18:44:17.026Z,6.6
2022-11-29T18:49:23.193Z,6.6
2022-11-29T18:54:28.316Z,6.6
2022-11-29T18:59:34.312Z,6.6
2022-11-29T19:04:40.414Z,6.6
2022-11-29T19:09:46.509Z,6.6
2022-11-29T19:14:52.614Z,6.6
2022-11-29T19:19:58.760Z,6.6
2022-11-29T19:25:04.834Z,6.6
2022-11-29T19:30:09.983Z,6.6
2022-11-29T19:35:15.034Z,6.6
2022-11-29T19:40:20.205Z,6.6
2022-11-29T19:45:25.327Z,6.6
2022-11-29T19:50:30.369Z,6.6
2022-11-29T19:55:35.493Z,6.6
2022-11-29T20:00:41.601Z,6.6
2022-11-29T20:05:47.683Z,6.6
2022-11-29T20:10:53.780Z,6.6
2022-11-29T20:15:59.871Z,6.6
2022-11-29T20:21:05.965Z,6.6
2022-11-29T20:26:12.072Z,6.6
2022-11-29T20:31:18.165Z,6.6
2022-11-29T20:36:24.256Z,6.6
2022-11-29T20:41:30.353Z,6.5
2022-11-29T20:46:36.461Z,6.6
2022-11-29T20:51:42.530Z,6.6
2022-11-29T20:56:48.690Z,6.5
2022-11-29T21:01:53.764Z,6.6
2022-11-29T21:06:59.895Z,6.6
2022-11-29T21:12:05.942Z,6.5
2022-11-29T21:17:12.037Z,6.6
2022-11-29T21:22:18.210Z,6.6
2022-11-29T21:27:24.268Z,6.6
2022-11-29T21:32:30.332Z,6.6
2022-11-29T21:37:35.461Z,6.6
2022-11-29T21:42:40.559Z,6.6
2022-11-29T21:47:46.796Z,6.6
2022-11-29T21:52:52.802Z,6.6
2022-11-29T21:57:57.870Z,6.6
2022-11-29T22:03:02.971Z,6.6
2022-11-29T22:08:09.075Z,6.6
2022-11-29T22:13:15.188Z,6.6
2022-11-29T22:18:21.272Z,6.6
2022-11-29T22:23:27.361Z,6.6
2022-11-29T22:28:33.460Z,6.6
2022-11-29T22:33:39.557Z,6.6
2022-11-29T22:38:45.656Z,6.6
2022-11-29T22:43:51.794Z,6.6
2022-11-29T22:48:57.849Z,6.6
2022-11-29T22:54:03.946Z,6.6
2022-11-29T22:59:10.037Z,6.5
2022-11-29T23:04:16.227Z,6.5
2022-11-29T23:09:21.244Z,6.6
2022-11-29T23:14:27.360Z,6.5
2022-11-29T23:19:33.434Z,6.5
2022-11-29T23:24:39.524Z,6.5
2022-11-29T23:29:45.657Z,6.4
2022-11-29T23:34:51.714Z,6.4
2022-11-29T23:39:57.820Z,6.4
2022-11-29T23:45:02.941Z,6.4
2022-11-29T23:50:08.084Z,6.4
2022-11-29T23:55:13.179Z,6.4
